createdAt,value
2017-08-10T00:02:19.084Z,54.60
2017-08-10T00:04:46.640Z,54.60
2017-08-10T00:07:14.181Z,54.90
2017-08-10T00:09:42.500Z,54.90
2017-08-10T00:12:10.033Z,54.80
2017-08-10T00:14:37.551Z,54.90
2017-08-10T00:17:05.119Z,55.20
2017-08-10T00:19:32.625Z,55.50
2017-08-10T00:22:00.183Z,55.60
2017-08-10T00:24:27.694Z,55.30
2017-08-10T00:26:55.238Z,54.60
2017-08-10T00:29:22.786Z,55.20
2017-08-10T00:31:50.378Z,55.20
2017-08-10T00:34:17.985Z,54.90
2017-08-10T00:39:19.509Z,55.00
2017-08-10T00:41:47.139Z,55.30
2017-08-10T00:44:14.707Z,54.70
2017-08-10T00:46:42.259Z,54.90
2017-08-10T00:49:09.824Z,54.80
2017-08-10T00:51:37.370Z,54.90
2017-08-10T00:54:04.906Z,55.90
2017-08-10T00:56:32.454Z,56.00
2017-08-10T00:59:00.805Z,55.90
2017-08-10T01:01:28.355Z,55.90
2017-08-10T01:03:55.882Z,56.10
2017-08-10T01:06:23.414Z,56.30
2017-08-10T01:08:51.726Z,56.50
2017-08-10T01:11:19.263Z,56.50
2017-08-10T01:13:46.775Z,56.40
2017-08-10T01:16:14.319Z,56.50
2017-08-10T01:18:41.851Z,56.60
2017-08-10T01:21:09.371Z,57.10
2017-08-10T01:23:36.988Z,56.90
2017-08-10T01:26:04.526Z,57.10
2017-08-10T01:28:32.052Z,57.00
2017-08-10T01:30:59.618Z,57.10
2017-08-10T01:33:27.908Z,57.10
2017-08-10T01:35:55.492Z,57.10
2017-08-10T01:38:23.014Z,57.40
2017-08-10T01:40:50.574Z,57.30
2017-08-10T01:43:18.124Z,57.10
2017-08-10T01:45:45.666Z,57.30
2017-08-10T01:48:13.196Z,57.40
2017-08-10T01:50:40.737Z,57.80
2017-08-10T01:53:08.256Z,57.70
2017-08-10T01:55:36.587Z,58.50
2017-08-10T01:58:04.101Z,58.50
2017-08-10T02:00:32.446Z,58.50
2017-08-10T02:02:59.944Z,57.90
2017-08-10T02:05:27.485Z,58.00
2017-08-10T02:07:55.067Z,58.30
2017-08-10T02:10:23.357Z,57.80
2017-08-10T02:12:50.912Z,57.70
2017-08-10T02:15:19.232Z,58.40
2017-08-10T02:17:46.793Z,58.40
2017-08-10T02:20:14.338Z,58.20
2017-08-10T02:22:41.858Z,58.10
2017-08-10T02:25:10.186Z,58.30
2017-08-10T02:27:37.744Z,58.30
2017-08-10T02:30:05.725Z,57.80
2017-08-10T02:32:33.288Z,57.90
2017-08-10T02:35:00.829Z,58.00
2017-08-10T02:37:28.395Z,58.30
2017-08-10T02:39:55.927Z,57.70
2017-08-10T02:42:23.470Z,57.90
2017-08-10T02:44:51.752Z,57.10
2017-08-10T02:47:20.070Z,57.50
2017-08-10T02:49:47.688Z,57.40
2017-08-10T02:52:15.989Z,58.10
2017-08-10T02:54:43.511Z,58.10
2017-08-10T02:57:11.040Z,57.30
2017-08-10T02:59:38.554Z,57.70
2017-08-10T03:02:06.102Z,57.60
2017-08-10T03:04:34.399Z,56.20
2017-08-10T03:07:02.039Z,56.20
2017-08-10T03:09:29.563Z,56.30
2017-08-10T03:11:57.248Z,58.00
2017-08-10T03:14:24.794Z,57.80
2017-08-10T03:16:52.370Z,57.60
2017-08-10T03:19:19.865Z,57.20
2017-08-10T03:21:47.462Z,56.50
2017-08-10T03:24:15.012Z,56.50
2017-08-10T03:26:42.567Z,56.90
2017-08-10T03:29:10.088Z,56.60
2017-08-10T03:31:37.656Z,56.70
2017-08-10T03:34:05.207Z,56.50
2017-08-10T03:36:33.519Z,57.60
2017-08-10T03:39:01.026Z,57.60
2017-08-10T03:41:28.567Z,57.60
2017-08-10T03:43:56.067Z,57.00
2017-08-10T03:46:24.423Z,56.90
2017-08-10T03:48:51.968Z,56.80
2017-08-10T03:51:19.512Z,56.70
2017-08-10T03:53:47.060Z,56.10
2017-08-10T03:56:14.610Z,56.60
2017-08-10T03:58:42.134Z,55.80
2017-08-10T04:01:10.460Z,57.10
2017-08-10T04:03:37.958Z,56.90
2017-08-10T04:06:05.451Z,57.50
2017-08-10T04:08:33.011Z,57.90
2017-08-10T04:11:00.528Z,57.90
2017-08-10T04:13:28.063Z,57.70
2017-08-10T04:15:55.613Z,58.10
2017-08-10T04:18:23.171Z,57.60
2017-08-10T04:20:50.691Z,57.70
2017-08-10T04:23:18.316Z,58.30
2017-08-10T04:25:45.843Z,57.80
2017-08-10T04:28:13.370Z,58.00
2017-08-10T04:30:41.682Z,56.80
2017-08-10T04:33:09.293Z,56.80
2017-08-10T04:35:37.592Z,56.50
2017-08-10T04:38:05.884Z,56.40
2017-08-10T04:40:33.472Z,56.40
2017-08-10T04:43:01.030Z,56.30
2017-08-10T04:45:28.571Z,57.30
2017-08-10T04:47:56.126Z,57.70
2017-08-10T04:50:23.653Z,57.40
2017-08-10T04:52:51.214Z,57.30
2017-08-10T04:55:18.774Z,58.10
2017-08-10T04:57:46.336Z,57.70
2017-08-10T05:00:13.871Z,57.30
2017-08-10T05:02:41.451Z,57.10
2017-08-10T05:05:08.958Z,57.30
2017-08-10T05:07:36.526Z,57.40
2017-08-10T05:10:04.045Z,56.10
2017-08-10T05:12:32.358Z,56.80
2017-08-10T05:14:59.914Z,56.80
2017-08-10T05:17:27.515Z,56.50
2017-08-10T05:19:55.046Z,56.00
2017-08-10T05:22:22.606Z,55.80
2017-08-10T05:24:50.258Z,55.60
2017-08-10T05:27:17.782Z,56.10
2017-08-10T05:29:46.073Z,55.70
2017-08-10T05:32:14.393Z,55.70
2017-08-10T05:34:42.089Z,55.60
2017-08-10T05:37:10.622Z,56.60
2017-08-10T05:39:39.003Z,56.60
2017-08-10T05:42:07.203Z,55.60
2017-08-10T05:44:36.525Z,55.40
2017-08-10T05:47:05.995Z,55.60
2017-08-10T05:49:33.549Z,54.90
2017-08-10T05:52:01.126Z,54.40
2017-08-10T05:54:28.647Z,54.10
2017-08-10T05:56:56.201Z,53.80
2017-08-10T05:59:23.746Z,53.40
2017-08-10T06:01:52.091Z,53.10
2017-08-10T06:04:19.614Z,53.00
2017-08-10T06:06:47.170Z,53.30
2017-08-10T06:09:14.718Z,53.00
2017-08-10T06:11:42.290Z,53.80
2017-08-10T06:14:09.818Z,52.80
2017-08-10T06:16:38.094Z,53.10
2017-08-10T06:19:06.427Z,52.80
2017-08-10T06:21:33.948Z,52.70
2017-08-10T06:24:01.523Z,53.50
2017-08-10T06:26:29.038Z,52.60
2017-08-10T06:28:56.567Z,51.90
2017-08-10T06:31:24.085Z,52.30
2017-08-10T06:33:51.626Z,51.80
2017-08-10T06:36:19.130Z,52.00
2017-08-10T06:38:46.706Z,52.20
2017-08-10T06:41:14.338Z,52.70
2017-08-10T06:43:41.867Z,52.70
2017-08-10T06:46:09.403Z,52.60
2017-08-10T06:48:37.020Z,52.60
2017-08-10T06:51:04.555Z,52.00
2017-08-10T06:53:32.875Z,52.10
2017-08-10T06:56:00.402Z,52.10
2017-08-10T06:58:27.965Z,52.40
2017-08-10T07:00:55.490Z,52.40
2017-08-10T07:03:23.064Z,53.10
2017-08-10T07:05:50.638Z,52.40
2017-08-10T07:08:18.928Z,51.20
2017-08-10T07:10:46.463Z,50.50
2017-08-10T07:13:14.801Z,50.30
2017-08-10T07:15:42.304Z,50.20
2017-08-10T07:18:10.611Z,50.40
2017-08-10T07:20:38.143Z,50.40
2017-08-10T07:23:06.506Z,50.40
2017-08-10T07:25:34.024Z,50.40
2017-08-10T07:28:01.550Z,51.00
2017-08-10T07:30:29.823Z,50.30
2017-08-10T07:32:57.408Z,50.30
2017-08-10T07:35:24.914Z,49.40
2017-08-10T07:37:52.485Z,51.00
2017-08-10T07:40:19.998Z,50.20
2017-08-10T07:42:47.560Z,49.90
2017-08-10T07:45:15.109Z,48.70
2017-08-10T07:47:42.651Z,49.50
2017-08-10T07:50:10.199Z,48.40
2017-08-10T07:52:38.517Z,46.90
2017-08-10T07:55:06.056Z,46.80
2017-08-10T07:57:33.584Z,46.40
2017-08-10T08:00:01.106Z,46.60
2017-08-10T08:02:28.635Z,45.80
2017-08-10T08:04:56.185Z,47.00
2017-08-10T08:07:23.735Z,46.50
2017-08-10T08:09:51.295Z,46.90
2017-08-10T08:12:19.614Z,46.80
2017-08-10T08:14:47.151Z,46.70
2017-08-10T08:17:14.661Z,47.30
2017-08-10T08:19:42.203Z,48.00
2017-08-10T08:22:09.710Z,47.90
2017-08-10T08:24:37.297Z,47.90
2017-08-10T08:27:04.854Z,48.40
2017-08-10T08:29:32.379Z,48.60
2017-08-10T08:32:00.669Z,49.20
2017-08-10T08:34:29.002Z,49.50
2017-08-10T08:36:56.538Z,49.50
2017-08-10T08:39:24.079Z,48.70
2017-08-10T08:41:51.626Z,50.00
2017-08-10T08:44:19.168Z,49.50
2017-08-10T08:46:46.726Z,49.10
2017-08-10T08:49:14.303Z,48.00
2017-08-10T08:51:41.871Z,46.90
2017-08-10T08:54:09.483Z,47.00
2017-08-10T08:56:37.027Z,46.90
2017-08-10T08:59:04.574Z,47.90
2017-08-10T09:01:32.096Z,47.40
2017-08-10T09:03:59.650Z,46.70
2017-08-10T09:06:28.864Z,46.30
2017-08-10T09:08:56.411Z,46.80
2017-08-10T09:11:23.918Z,45.90
2017-08-10T09:13:51.469Z,45.70
2017-08-10T09:16:18.994Z,46.30
2017-08-10T09:18:47.304Z,48.20
2017-08-10T09:21:14.823Z,47.60
2017-08-10T09:23:43.396Z,48.40
2017-08-10T09:26:13.870Z,48.30
2017-08-10T09:28:48.206Z,47.50
2017-08-10T09:31:16.941Z,46.80
2017-08-10T09:33:45.874Z,47.30
2017-08-10T09:36:13.423Z,47.80
2017-08-10T09:38:40.954Z,47.60
2017-08-10T09:41:08.512Z,47.30
2017-08-10T09:43:36.075Z,47.40
2017-08-10T09:46:05.658Z,46.10
2017-08-10T09:48:34.098Z,44.40
2017-08-10T09:51:06.858Z,44.10
2017-08-10T09:53:37.997Z,46.70
2017-08-10T09:56:05.494Z,46.70
2017-08-10T09:58:33.046Z,45.50
2017-08-10T10:01:00.575Z,43.80
2017-08-10T10:03:28.089Z,43.20
2017-08-10T10:05:55.629Z,42.90
2017-08-10T10:08:23.220Z,43.40
2017-08-10T10:10:50.718Z,43.00
2017-08-10T10:13:18.255Z,42.50
2017-08-10T10:15:45.762Z,43.60
2017-08-10T10:18:13.305Z,44.50
2017-08-10T10:20:40.839Z,43.90
2017-08-10T10:23:08.397Z,44.30
2017-08-10T10:25:35.899Z,43.60
2017-08-10T10:28:03.412Z,45.90
2017-08-10T10:30:30.930Z,44.90
2017-08-10T10:32:58.497Z,43.30
2017-08-10T10:35:26.034Z,43.00
2017-08-10T10:37:53.588Z,42.80
2017-08-10T10:40:21.878Z,42.70
2017-08-10T10:42:49.396Z,42.70
2017-08-10T10:45:17.730Z,44.10
2017-08-10T10:47:45.247Z,44.00
2017-08-10T10:50:12.816Z,44.20
2017-08-10T10:52:40.336Z,46.30
2017-08-10T10:55:07.862Z,47.00
2017-08-10T10:57:35.379Z,46.80
2017-08-10T11:00:03.703Z,46.40
2017-08-10T11:02:31.225Z,46.40
2017-08-10T11:04:58.770Z,47.40
2017-08-10T11:07:26.281Z,47.10
2017-08-10T11:09:53.853Z,47.60
2017-08-10T11:12:21.607Z,47.70
2017-08-10T11:14:52.623Z,47.90
2017-08-10T11:17:20.527Z,47.80
2017-08-10T11:19:48.903Z,47.50
2017-08-10T11:22:16.444Z,48.20
2017-08-10T11:24:48.317Z,47.40
2017-08-10T11:27:16.489Z,48.10
2017-08-10T11:29:45.576Z,47.40
2017-08-10T11:32:14.337Z,49.30
2017-08-10T11:34:41.882Z,48.80
2017-08-10T11:37:09.430Z,49.10
2017-08-10T11:39:36.963Z,48.00
2017-08-10T11:42:04.494Z,49.40
2017-08-10T11:44:32.159Z,49.00
2017-08-10T11:47:00.482Z,49.10
2017-08-10T11:49:28.028Z,49.10
2017-08-10T11:51:55.593Z,49.00
2017-08-10T11:54:23.114Z,50.40
2017-08-10T11:56:50.630Z,51.10
2017-08-10T11:59:18.191Z,50.80
2017-08-10T12:01:45.703Z,52.30
2017-08-10T12:04:13.254Z,53.10
2017-08-10T12:06:40.855Z,53.40
2017-08-10T12:09:08.497Z,53.30
2017-08-10T12:11:36.029Z,53.70
2017-08-10T12:14:03.622Z,54.40
2017-08-10T12:16:31.239Z,54.30
2017-08-10T12:18:59.559Z,54.30
2017-08-10T12:21:27.092Z,54.40
2017-08-10T12:23:54.701Z,56.30
2017-08-10T12:26:22.210Z,56.00
2017-08-10T12:28:50.528Z,57.10
2017-08-10T12:31:18.059Z,57.10
2017-08-10T12:33:45.634Z,56.30
2017-08-10T12:36:13.159Z,57.00
2017-08-10T12:38:41.479Z,57.00
2017-08-10T12:41:09.011Z,56.90
2017-08-10T12:43:36.564Z,57.50
2017-08-10T12:46:04.108Z,57.50
2017-08-10T12:48:32.443Z,57.10
2017-08-10T12:51:00.010Z,57.10
2017-08-10T12:53:27.540Z,58.10
2017-08-10T12:55:55.204Z,58.00
2017-08-10T12:58:26.394Z,58.10
2017-08-10T13:00:53.937Z,57.50
2017-08-10T13:03:21.465Z,58.00
2017-08-10T13:05:49.004Z,58.10
2017-08-10T13:08:16.526Z,57.60
2017-08-10T13:10:44.095Z,56.60
2017-08-10T13:13:11.675Z,57.10
2017-08-10T13:15:40.014Z,56.90
2017-08-10T13:18:07.534Z,56.90
2017-08-10T13:20:35.117Z,58.60
2017-08-10T13:23:02.683Z,58.50
2017-08-10T13:25:30.222Z,57.30
2017-08-10T13:27:57.772Z,57.20
2017-08-10T13:30:25.311Z,55.80
2017-08-10T13:32:53.575Z,57.10
2017-08-10T13:35:21.105Z,57.10
2017-08-10T13:37:48.662Z,57.80
2017-08-10T13:40:16.210Z,56.60
2017-08-10T13:42:43.740Z,57.50
2017-08-10T13:45:13.373Z,56.80
2017-08-10T13:47:41.044Z,56.70
2017-08-10T13:50:08.808Z,56.60
2017-08-10T13:52:38.905Z,56.20
2017-08-10T13:55:06.658Z,57.10
2017-08-10T13:57:34.191Z,57.50
2017-08-10T14:00:01.736Z,57.00
2017-08-10T14:02:29.268Z,56.80
2017-08-10T14:04:56.823Z,56.40
2017-08-10T14:07:24.337Z,58.10
2017-08-10T14:09:51.952Z,56.60
2017-08-10T14:12:19.528Z,57.10
2017-08-10T14:14:47.046Z,57.30
2017-08-10T14:17:14.574Z,58.20
2017-08-10T14:19:42.099Z,57.70
2017-08-10T14:22:09.651Z,57.70
2017-08-10T14:24:37.173Z,57.30
2017-08-10T14:27:05.505Z,57.40
2017-08-10T14:29:33.056Z,57.40
2017-08-10T14:32:00.580Z,55.80
2017-08-10T14:34:28.132Z,56.80
2017-08-10T14:36:55.690Z,56.20
2017-08-10T14:39:23.989Z,57.50
2017-08-10T14:41:51.556Z,57.50
2017-08-10T14:44:19.087Z,56.10
2017-08-10T14:46:47.421Z,56.60
2017-08-10T14:49:14.966Z,56.60
2017-08-10T14:51:42.510Z,56.90
2017-08-10T14:54:10.052Z,57.80
2017-08-10T14:56:37.606Z,57.70
2017-08-10T14:59:05.123Z,57.00
2017-08-10T15:01:32.688Z,56.60
2017-08-10T15:04:00.252Z,57.10
2017-08-10T15:06:27.787Z,56.40
2017-08-10T15:08:55.307Z,56.80
2017-08-10T15:11:22.901Z,57.10
2017-08-10T15:13:50.430Z,55.20
2017-08-10T15:16:18.747Z,56.50
2017-08-10T15:18:46.279Z,56.40
2017-08-10T15:21:13.827Z,55.50
2017-08-10T15:23:41.387Z,55.90
2017-08-10T15:26:08.918Z,56.80
2017-08-10T15:28:37.228Z,54.70
2017-08-10T15:31:04.754Z,54.60
2017-08-10T15:33:33.078Z,56.00
2017-08-10T15:36:00.655Z,55.90
2017-08-10T15:38:29.796Z,57.50
2017-08-10T15:40:58.120Z,57.00
2017-08-10T15:43:26.225Z,57.00
2017-08-10T15:45:54.942Z,57.70
2017-08-10T15:48:22.505Z,58.20
2017-08-10T15:50:51.123Z,57.40
2017-08-10T15:53:21.040Z,57.40
2017-08-10T15:55:50.200Z,57.10
2017-08-10T15:58:28.961Z,56.90
2017-08-10T16:00:57.239Z,56.80
2017-08-10T16:03:25.478Z,57.90
2017-08-10T16:05:53.800Z,57.90
2017-08-10T16:08:21.400Z,57.80
2017-08-10T16:10:48.943Z,58.80
2017-08-10T16:13:16.538Z,59.00
2017-08-10T16:15:44.107Z,58.80
2017-08-10T16:18:11.661Z,58.40
2017-08-10T16:20:39.230Z,58.80
2017-08-10T16:23:06.805Z,59.30
2017-08-10T16:25:34.341Z,60.90
2017-08-10T16:28:01.895Z,60.00
2017-08-10T16:30:30.191Z,60.10
2017-08-10T16:32:57.754Z,60.10
2017-08-10T16:35:25.309Z,58.80
2017-08-10T16:37:52.909Z,58.00
2017-08-10T16:40:20.439Z,58.60
2017-08-10T16:42:48.000Z,59.40
2017-08-10T16:45:15.564Z,59.50
2017-08-10T16:47:43.127Z,58.50
2017-08-10T16:50:10.654Z,57.40
2017-08-10T16:52:38.227Z,58.60
2017-08-10T16:55:05.753Z,59.30
2017-08-10T16:57:33.354Z,60.50
2017-08-10T17:00:00.862Z,60.00
2017-08-10T17:02:28.499Z,62.00
2017-08-10T17:04:56.028Z,60.10
2017-08-10T17:07:23.556Z,59.90
2017-08-10T17:09:51.086Z,60.50
2017-08-10T17:12:18.700Z,60.60
2017-08-10T17:14:47.052Z,61.80
2017-08-10T17:17:14.582Z,61.60
2017-08-10T17:19:42.110Z,61.90
2017-08-10T17:22:09.647Z,62.40
2017-08-10T17:24:37.921Z,63.30
2017-08-10T17:27:06.258Z,63.90
2017-08-10T17:29:33.801Z,63.50
2017-08-10T17:32:01.355Z,64.10
2017-08-10T17:34:28.922Z,63.40
2017-08-10T17:36:56.481Z,64.50
2017-08-10T17:39:24.014Z,64.00
2017-08-10T17:41:52.386Z,63.50
2017-08-10T17:44:20.666Z,63.90
2017-08-10T17:46:48.966Z,64.90
2017-08-10T17:49:16.539Z,64.90
2017-08-10T17:51:44.064Z,64.20
2017-08-10T17:54:12.390Z,64.40
2017-08-10T17:56:39.906Z,64.40
2017-08-10T17:59:08.231Z,65.40
2017-08-10T18:01:35.749Z,65.20
2017-08-10T18:04:04.075Z,65.40
2017-08-10T18:06:31.622Z,65.40
2017-08-10T18:08:59.149Z,66.00
2017-08-10T18:11:26.711Z,66.00
2017-08-10T18:13:54.248Z,65.80
2017-08-10T18:16:22.518Z,69.10
2017-08-10T18:18:50.079Z,69.00
2017-08-10T18:21:17.615Z,67.80
2017-08-10T18:23:45.162Z,66.30
2017-08-10T18:26:12.711Z,66.60
2017-08-10T18:28:40.284Z,66.80
2017-08-10T18:31:07.828Z,66.20
2017-08-10T18:33:35.418Z,65.00
2017-08-10T18:36:02.933Z,64.80
2017-08-10T18:38:30.482Z,65.00
2017-08-10T18:40:58.781Z,65.30
2017-08-10T18:43:26.328Z,65.20
2017-08-10T18:45:53.838Z,66.40
2017-08-10T18:48:21.392Z,65.50
2017-08-10T18:50:48.939Z,65.80
2017-08-10T18:53:16.487Z,66.30
2017-08-10T18:55:44.078Z,66.20
2017-08-10T18:58:11.631Z,68.20
2017-08-10T19:00:39.207Z,69.00
2017-08-10T19:03:06.754Z,67.90
2017-08-10T19:05:34.332Z,68.50
2017-08-10T19:08:01.885Z,68.30
2017-08-10T19:10:29.426Z,68.60
2017-08-10T19:12:56.987Z,68.20
2017-08-10T19:15:24.515Z,68.60
2017-08-10T19:17:52.068Z,68.90
2017-08-10T19:20:19.651Z,68.30
2017-08-10T19:22:47.204Z,68.40
2017-08-10T19:25:14.759Z,67.90
2017-08-10T19:27:42.308Z,66.60
2017-08-10T19:30:09.847Z,66.80
2017-08-10T19:32:38.174Z,66.10
2017-08-10T19:35:05.705Z,65.90
2017-08-10T19:37:33.290Z,66.20
2017-08-10T19:40:00.849Z,65.70
2017-08-10T19:42:28.414Z,65.50
2017-08-10T19:44:55.961Z,64.80
2017-08-10T19:47:23.535Z,65.00
2017-08-10T19:49:51.116Z,65.10
2017-08-10T19:52:18.671Z,65.80
2017-08-10T19:54:46.212Z,66.20
2017-08-10T19:57:13.726Z,67.00
2017-08-10T19:59:42.063Z,67.60
2017-08-10T20:02:09.582Z,67.50
2017-08-10T20:04:37.186Z,67.20
2017-08-10T20:07:04.699Z,67.90
2017-08-10T20:09:32.230Z,67.30
2017-08-10T20:11:59.766Z,67.30
2017-08-10T20:14:27.422Z,67.30
2017-08-10T20:16:54.946Z,66.90
2017-08-10T20:19:22.615Z,67.40
2017-08-10T20:21:50.150Z,66.20
2017-08-10T20:24:17.744Z,66.20
2017-08-10T20:26:45.263Z,67.20
2017-08-10T20:29:12.852Z,66.70
2017-08-10T20:31:40.358Z,65.50
2017-08-10T20:34:07.912Z,65.50
2017-08-10T20:36:35.459Z,66.40
2017-08-10T20:39:03.027Z,66.00
2017-08-10T20:41:30.555Z,66.10
2017-08-10T20:43:58.247Z,66.40
2017-08-10T20:46:25.815Z,66.40
2017-08-10T20:48:53.338Z,66.30
2017-08-10T20:51:20.898Z,66.30
2017-08-10T20:53:48.478Z,67.00
2017-08-10T20:56:16.001Z,66.80
2017-08-10T20:58:43.536Z,66.50
2017-08-10T21:01:11.092Z,65.80
2017-08-10T21:03:38.623Z,65.70
2017-08-10T21:06:06.148Z,66.60
2017-08-10T21:08:33.706Z,67.30
2017-08-10T21:11:01.223Z,67.90
2017-08-10T21:13:28.794Z,68.30
2017-08-10T21:15:56.297Z,68.20
2017-08-10T21:18:23.870Z,67.90
2017-08-10T21:20:51.379Z,67.80
2017-08-10T21:23:19.713Z,69.00
2017-08-10T21:25:47.278Z,68.60
2017-08-10T21:28:14.805Z,68.40
2017-08-10T21:30:42.448Z,67.70
2017-08-10T21:33:10.753Z,66.80
2017-08-10T21:35:38.258Z,66.70
2017-08-10T21:38:05.839Z,67.40
2017-08-10T21:40:34.126Z,67.50
2017-08-10T21:43:02.447Z,67.40
2017-08-10T21:45:29.966Z,67.40
2017-08-10T21:47:58.289Z,67.50
2017-08-10T21:50:25.809Z,67.50
2017-08-10T21:52:53.344Z,68.40
2017-08-10T21:55:20.938Z,68.10
2017-08-10T21:57:48.481Z,68.20
2017-08-10T22:00:16.048Z,68.00
2017-08-10T22:02:44.335Z,68.90
2017-08-10T22:05:11.902Z,68.70
2017-08-10T22:07:39.447Z,68.10
2017-08-10T22:10:07.786Z,67.70
2017-08-10T22:12:35.328Z,67.60
2017-08-10T22:15:02.919Z,68.20
2017-08-10T22:17:30.432Z,68.00
2017-08-10T22:19:57.992Z,68.30
2017-08-10T22:22:25.512Z,68.40
2017-08-10T22:24:53.814Z,69.50
2017-08-10T22:27:21.331Z,68.60
2017-08-10T22:29:49.663Z,68.40
2017-08-10T22:32:17.185Z,68.20
2017-08-10T22:34:45.476Z,68.00
2017-08-10T22:37:13.750Z,67.70
2017-08-10T22:39:42.056Z,68.00
2017-08-10T22:42:09.591Z,68.00
2017-08-10T22:44:37.203Z,68.10
2017-08-10T22:47:04.746Z,67.70
2017-08-10T22:49:32.310Z,68.10
2017-08-10T22:51:59.903Z,67.40
2017-08-10T22:54:27.469Z,67.90
2017-08-10T22:56:55.781Z,68.10
2017-08-10T22:59:23.371Z,67.90
2017-08-10T23:01:50.897Z,67.90
2017-08-10T23:04:18.454Z,69.20
2017-08-10T23:06:45.960Z,69.50
2017-08-10T23:09:13.526Z,69.70
2017-08-10T23:11:41.035Z,69.50
2017-08-10T23:14:08.598Z,69.00
2017-08-10T23:16:36.098Z,69.00
2017-08-10T23:19:03.690Z,68.20
2017-08-10T23:21:31.237Z,67.70
2017-08-10T23:23:58.775Z,69.10
2017-08-10T23:26:26.279Z,69.10
2017-08-10T23:28:54.582Z,68.90
2017-08-10T23:31:22.139Z,68.90
2017-08-10T23:33:49.678Z,68.20
2017-08-10T23:36:17.954Z,68.50
2017-08-10T23:38:46.234Z,69.10
2017-08-10T23:41:14.523Z,69.20
2017-08-10T23:43:42.099Z,69.10
2017-08-10T23:46:09.654Z,68.90
2017-08-10T23:48:37.201Z,69.60
2017-08-10T23:51:04.748Z,69.50
2017-08-10T23:53:33.051Z,69.40
2017-08-10T23:56:00.569Z,69.20
2017-08-10T23:58:28.258Z,69.40
